Time;durP1;ratioP1;P1;durP2;ratioP2;P2;SDS_P1;SDS_P2;PMS_P1;PMS_P2;Temp;Humidity;BMP_temperature;BMP_pressure;BME280_temperature;BME280_humidity;BME280_pressure;Samples;Min_cycle;Max_cycle;Signal;HPM_P1;HPM_P2
2023/06/01 00:01:12;;;;;;;7.97;3.83;;;;;;;;;;5119656;28;20307;-69
2023/06/01 00:03:40;;;;;;;5.17;3.20;;;;;;;;;;5121249;28;20647;-68
2023/06/01 00:06:09;;;;;;;4.10;3.40;;;;;;;;;;5121166;28;20225;-69
2023/06/01 00:08:37;;;;;;;5.03;3.23;;;;;;;;;;5121066;28;20659;-69
2023/06/01 00:11:05;;;;;;;4.83;3.50;;;;;;;;;;5121140;28;20296;-69
2023/06/01 00:13:33;;;;;;;5.30;3.70;;;;;;;;;;5121260;28;20218;-68
2023/06/01 00:16:03;;;;;;;5.03;3.53;;;;;;;;;;5121249;28;20315;-67
2023/06/01 00:18:32;;;;;;;4.60;3.63;;;;;;;;;;5121118;28;20208;-67
2023/06/01 00:21:00;;;;;;;7.53;3.40;;;;;;;;;;5120614;28;20225;-68
2023/06/01 00:23:29;;;;;;;5.13;3.23;;;;;;;;;;5120787;27;20245;-69
2023/06/01 00:25:57;;;;;;;4.83;3.40;;;;;;;;;;5120750;28;20221;-69
2023/06/01 00:28:25;;;;;;;4.67;3.57;;;;;;;;;;5120782;28;20201;-70
2023/06/01 00:30:53;;;;;;;4.17;3.57;;;;;;;;;;5120778;27;20254;-69
2023/06/01 00:33:23;;;;;;;5.70;3.33;;;;;;;;;;5120677;28;20244;-69
2023/06/01 00:35:51;;;;;;;6.33;3.50;;;;;;;;;;5120578;28;20225;-69
2023/06/01 00:38:19;;;;;;;5.77;3.50;;;;;;;;;;5120534;28;20297;-70
2023/06/01 00:40:50;;;;;;;4.50;3.53;;;;;;;;;;5120517;28;20273;-70
2023/06/01 00:43:18;;;;;;;4.23;3.50;;;;;;;;;;5120876;28;20209;-70
2023/06/01 00:45:46;;;;;;;4.43;3.37;;;;;;;;;;5120623;28;20236;-69
2023/06/01 00:48:15;;;;;;;3.60;3.27;;;;;;;;;;5120760;28;20201;-69
2023/06/01 00:50:45;;;;;;;5.47;3.87;;;;;;;;;;5120067;28;20228;-69
2023/06/01 00:53:20;;;;;;;4.60;3.90;;;;;;;;;;5120073;28;20296;-69
2023/06/01 00:55:48;;;;;;;5.70;3.63;;;;;;;;;;5120143;28;20278;-69
2023/06/01 00:58:17;;;;;;;4.10;3.33;;;;;;;;;;5112278;28;20287;-69
2023/06/01 01:00:47;;;;;;;4.50;3.10;;;;;;;;;;5117740;28;20232;-69
2023/06/01 01:03:17;;;;;;;6.53;3.30;;;;;;;;;;5120156;28;20628;-68
2023/06/01 01:05:47;;;;;;;4.17;3.23;;;;;;;;;;5119653;28;20253;-67
2023/06/01 01:08:22;;;;;;;3.70;3.30;;;;;;;;;;5120198;27;20220;-65
2023/06/01 01:10:53;;;;;;;4.43;3.60;;;;;;;;;;5120329;28;20211;-66
2023/06/01 01:13:24;;;;;;;5.40;3.67;;;;;;;;;;5119867;28;20200;-65
2023/06/01 01:15:54;;;;;;;4.50;3.53;;;;;;;;;;5120212;28;20312;-68
2023/06/01 01:18:27;;;;;;;4.33;3.90;;;;;;;;;;5119802;27;20219;-66
2023/06/01 01:21:00;;;;;;;3.70;3.37;;;;;;;;;;5119789;28;20229;-65
2023/06/01 01:23:45;;;;;;;4.50;3.50;;;;;;;;;;5119557;28;20216;-64
2023/06/01 01:26:22;;;;;;;4.87;4.27;;;;;;;;;;5116612;28;20220;-65
2023/06/01 01:28:53;;;;;;;4.90;3.47;;;;;;;;;;5108446;28;20204;-65
2023/06/01 01:31:23;;;;;;;7.07;3.90;;;;;;;;;;5119543;28;20209;-65
2023/06/01 01:33:54;;;;;;;5.03;4.03;;;;;;;;;;5119463;28;20253;-65
2023/06/01 01:36:22;;;;;;;6.47;3.97;;;;;;;;;;5119180;28;20224;-65
2023/06/01 01:38:50;;;;;;;6.17;3.90;;;;;;;;;;5119348;28;20205;-65
2023/06/01 01:41:18;;;;;;;6.40;4.10;;;;;;;;;;5119354;28;20228;-65
2023/06/01 01:43:47;;;;;;;4.70;3.77;;;;;;;;;;5119664;28;20231;-65
2023/06/01 01:46:21;;;;;;;5.43;4.60;;;;;;;;;;5116936;28;20727;-65
2023/06/01 01:48:53;;;;;;;6.53;3.87;;;;;;;;;;5107949;28;20279;-65
2023/06/01 01:51:23;;;;;;;5.37;4.23;;;;;;;;;;5118954;28;20204;-65
2023/06/01 01:53:52;;;;;;;8.03;4.33;;;;;;;;;;5119098;28;20247;-64
2023/06/01 01:56:21;;;;;;;5.23;4.23;;;;;;;;;;5118966;28;20749;-66
2023/06/01 01:58:50;;;;;;;5.23;4.23;;;;;;;;;;5125875;27;20545;-66
2023/06/01 02:01:19;;;;;;;4.93;3.90;;;;;;;;;;5110052;27;20224;-66
2023/06/01 02:03:48;;;;;;;5.63;4.27;;;;;;;;;;5119034;28;20679;-66
2023/06/01 02:06:16;;;;;;;8.03;3.97;;;;;;;;;;5118542;28;20225;-66
2023/06/01 02:08:44;;;;;;;5.20;4.03;;;;;;;;;;5118789;28;20254;-66
2023/06/01 02:11:12;;;;;;;5.43;4.10;;;;;;;;;;5109439;28;20197;-66
2023/06/01 02:13:40;;;;;;;7.90;3.83;;;;;;;;;;5114737;28;20213;-66
2023/06/01 02:16:09;;;;;;;4.07;3.63;;;;;;;;;;5118876;28;20671;-66
2023/06/01 02:18:41;;;;;;;4.87;3.83;;;;;;;;;;5118932;28;20240;-66
2023/06/01 02:21:09;;;;;;;6.67;4.10;;;;;;;;;;5118599;28;20231;-66
2023/06/01 02:23:39;;;;;;;4.03;3.70;;;;;;;;;;5118063;28;20563;-66
2023/06/01 02:26:07;;;;;;;4.80;3.73;;;;;;;;;;5118696;28;20307;-66
2023/06/01 02:28:37;;;;;;;5.63;3.77;;;;;;;;;;5117427;28;20312;-66
2023/06/01 02:31:05;;;;;;;4.57;3.43;;;;;;;;;;5118730;28;20327;-66
2023/06/01 02:33:33;;;;;;;5.40;4.37;;;;;;;;;;5113883;28;20299;-66
2023/06/01 02:36:03;;;;;;;6.77;4.00;;;;;;;;;;5109085;28;20271;-66
2023/06/01 02:38:31;;;;;;;4.07;3.67;;;;;;;;;;5118563;28;20205;-66
2023/06/01 02:40:59;;;;;;;7.37;3.63;;;;;;;;;;5118303;28;20320;-66
2023/06/01 02:43:28;;;;;;;5.00;4.17;;;;;;;;;;5117867;28;20209;-65
2023/06/01 02:45:56;;;;;;;6.10;3.83;;;;;;;;;;5114960;28;20217;-65
2023/06/01 02:48:24;;;;;;;5.80;3.60;;;;;;;;;;5118229;28;20250;-66
2023/06/01 02:50:52;;;;;;;6.20;3.40;;;;;;;;;;5118187;28;20197;-64
2023/06/01 02:53:22;;;;;;;4.23;3.47;;;;;;;;;;5117701;28;20229;-65
2023/06/01 02:55:50;;;;;;;6.50;4.10;;;;;;;;;;5117820;28;20227;-65
2023/06/01 02:58:18;;;;;;;9.07;4.20;;;;;;;;;;5113932;28;20228;-66
2023/06/01 03:00:46;;;;;;;4.70;4.10;;;;;;;;;;5117988;28;20205;-65
2023/06/01 03:03:15;;;;;;;8.07;3.73;;;;;;;;;;5117988;28;20197;-66
2023/06/01 03:05:44;;;;;;;6.17;4.40;;;;;;;;;;5117760;28;20229;-65
2023/06/01 03:08:12;;;;;;;7.70;4.17;;;;;;;;;;5117807;28;20208;-65
2023/06/01 03:10:42;;;;;;;7.90;4.10;;;;;;;;;;5117967;28;20296;-66
2023/06/01 03:13:10;;;;;;;6.77;4.60;;;;;;;;;;5118007;28;20262;-66
2023/06/01 03:15:38;;;;;;;7.23;4.70;;;;;;;;;;5118129;28;20229;-65
2023/06/01 03:18:08;;;;;;;6.00;4.27;;;;;;;;;;5118032;28;20735;-65
2023/06/01 03:20:36;;;;;;;8.60;4.30;;;;;;;;;;5117921;28;20215;-65
2023/06/01 03:23:05;;;;;;;6.50;4.50;;;;;;;;;;5117892;28;20284;-65
2023/06/01 03:25:33;;;;;;;8.23;4.03;;;;;;;;;;5118025;28;20250;-65
2023/06/01 03:28:03;;;;;;;6.60;4.40;;;;;;;;;;5118203;28;20204;-65
2023/06/01 03:30:31;;;;;;;7.10;4.13;;;;;;;;;;5118127;28;20215;-65
2023/06/01 03:32:59;;;;;;;5.43;4.13;;;;;;;;;;5117870;28;20197;-65
2023/06/01 03:35:28;;;;;;;9.43;6.83;;;;;;;;;;5118830;28;20312;-65
2023/06/01 03:37:56;;;;;;;8.33;5.17;;;;;;;;;;5121653;28;20208;-65
2023/06/01 03:40:24;;;;;;;10.97;4.40;;;;;;;;;;5121997;28;20215;-65
2023/06/01 03:42:52;;;;;;;7.27;4.50;;;;;;;;;;5121851;28;20228;-65
2023/06/01 03:45:21;;;;;;;6.23;4.40;;;;;;;;;;5121683;28;20231;-65
2023/06/01 03:47:49;;;;;;;6.17;4.70;;;;;;;;;;5121640;28;20200;-65
2023/06/01 03:50:18;;;;;;;5.80;4.30;;;;;;;;;;5121297;28;20263;-66
2023/06/01 03:52:46;;;;;;;6.47;4.13;;;;;;;;;;5121389;28;20229;-66
2023/06/01 03:55:17;;;;;;;6.80;4.67;;;;;;;;;;5121422;28;20225;-68
2023/06/01 03:57:45;;;;;;;4.30;3.83;;;;;;;;;;5121453;28;20215;-65
2023/06/01 04:00:19;;;;;;;5.93;4.07;;;;;;;;;;5121585;28;20235;-64
2023/06/01 04:02:52;;;;;;;4.53;3.90;;;;;;;;;;5121213;28;20713;-66
2023/06/01 04:05:20;;;;;;;6.60;4.57;;;;;;;;;;5121245;28;20232;-66
2023/06/01 04:07:50;;;;;;;6.43;4.47;;;;;;;;;;5121103;28;20204;-66
2023/06/01 04:10:18;;;;;;;6.47;4.20;;;;;;;;;;5121228;28;20208;-66
2023/06/01 04:12:47;;;;;;;6.43;4.13;;;;;;;;;;5121392;28;20211;-66
2023/06/01 04:15:16;;;;;;;5.43;4.23;;;;;;;;;;5121268;28;20224;-66
2023/06/01 04:17:45;;;;;;;5.50;4.30;;;;;;;;;;5120939;28;20550;-66
2023/06/01 04:20:15;;;;;;;5.43;4.40;;;;;;;;;;5120969;28;20234;-66
2023/06/01 04:22:44;;;;;;;7.40;4.57;;;;;;;;;;5120832;27;20228;-66
2023/06/01 04:25:16;;;;;;;6.03;4.40;;;;;;;;;;5120737;28;20262;-66
2023/06/01 04:27:45;;;;;;;5.47;4.33;;;;;;;;;;5121021;28;20284;-66
2023/06/01 04:30:15;;;;;;;7.67;5.00;;;;;;;;;;5120865;28;20204;-66
2023/06/01 04:32:45;;;;;;;8.37;5.20;;;;;;;;;;5121007;28;20288;-69
2023/06/01 04:35:15;;;;;;;7.77;4.97;;;;;;;;;;5112312;28;20217;-69
2023/06/01 04:37:44;;;;;;;7.57;4.80;;;;;;;;;;5118800;28;20240;-69
2023/06/01 04:40:13;;;;;;;10.53;4.63;;;;;;;;;;5120588;28;20209;-69
2023/06/01 04:42:42;;;;;;;6.50;4.73;;;;;;;;;;5120361;28;20225;-69
2023/06/01 04:45:11;;;;;;;8.80;4.83;;;;;;;;;;5120474;28;20595;-69
2023/06/01 04:47:39;;;;;;;6.27;5.20;;;;;;;;;;5120050;28;20215;-69
2023/06/01 04:50:09;;;;;;;9.37;5.60;;;;;;;;;;5120265;28;20213;-68
2023/06/01 04:52:39;;;;;;;10.73;6.50;;;;;;;;;;5126531;27;20265;-68
2023/06/01 04:55:08;;;;;;;9.13;6.63;;;;;;;;;;5125708;27;20200;-68
2023/06/01 04:57:38;;;;;;;8.90;6.27;;;;;;;;;;5120394;28;20204;-68
2023/06/01 05:00:11;;;;;;;10.43;5.27;;;;;;;;;;5121406;27;20792;-68
2023/06/01 05:02:40;;;;;;;9.50;5.93;;;;;;;;;;5117896;27;20273;-68
2023/06/01 05:05:08;;;;;;;8.10;5.63;;;;;;;;;;5119553;27;20199;-68
2023/06/01 05:07:37;;;;;;;9.23;5.40;;;;;;;;;;5120304;27;20231;-68
2023/06/01 05:10:08;;;;;;;9.30;6.27;;;;;;;;;;5121123;27;20211;-68
2023/06/01 05:12:36;;;;;;;9.87;6.20;;;;;;;;;;5122072;27;20193;-68
2023/06/01 05:15:06;;;;;;;8.60;6.23;;;;;;;;;;5119421;27;20208;-68
2023/06/01 05:17:35;;;;;;;9.67;5.87;;;;;;;;;;5120694;27;20275;-68
2023/06/01 05:20:05;;;;;;;8.50;5.77;;;;;;;;;;5121072;27;20284;-66
2023/06/01 05:22:33;;;;;;;9.23;5.50;;;;;;;;;;5119440;27;20235;-67
2023/06/01 05:25:01;;;;;;;13.13;6.30;;;;;;;;;;5119009;28;20212;-68
2023/06/01 05:27:32;;;;;;;10.50;6.03;;;;;;;;;;5119830;28;20197;-68
2023/06/01 05:30:00;;;;;;;6.17;5.30;;;;;;;;;;5119556;28;20236;-68
2023/06/01 05:32:28;;;;;;;9.43;5.87;;;;;;;;;;5119785;28;20207;-68
2023/06/01 05:34:57;;;;;;;7.00;5.63;;;;;;;;;;5126091;27;20556;-66
2023/06/01 05:37:25;;;;;;;9.07;5.83;;;;;;;;;;5123054;27;20208;-69
2023/06/01 05:39:54;;;;;;;9.07;5.23;;;;;;;;;;5119506;27;20242;-68
2023/06/01 05:42:22;;;;;;;9.53;6.23;;;;;;;;;;5120311;27;20265;-68
2023/06/01 05:44:52;;;;;;;13.10;6.17;;;;;;;;;;5116244;28;20228;-68
2023/06/01 05:47:20;;;;;;;11.13;5.87;;;;;;;;;;5120551;28;20236;-68
2023/06/01 05:49:51;;;;;;;9.30;6.17;;;;;;;;;;5115957;28;20201;-68
2023/06/01 05:52:20;;;;;;;8.13;6.03;;;;;;;;;;5119180;27;20224;-68
2023/06/01 05:54:50;;;;;;;8.27;6.17;;;;;;;;;;5117036;27;20197;-68
2023/06/01 05:57:19;;;;;;;10.23;6.13;;;;;;;;;;5119803;27;20200;-68
2023/06/01 05:59:48;;;;;;;6.93;6.20;;;;;;;;;;5118083;28;20288;-68
2023/06/01 06:02:18;;;;;;;8.00;5.70;;;;;;;;;;5120120;27;20613;-68
2023/06/01 06:04:46;;;;;;;11.33;7.00;;;;;;;;;;5118787;27;20695;-68
2023/06/01 06:07:14;;;;;;;8.70;6.43;;;;;;;;;;5119979;27;20680;-68
2023/06/01 06:09:42;;;;;;;14.20;7.70;;;;;;;;;;5120562;27;20205;-68
2023/06/01 06:12:11;;;;;;;14.40;7.37;;;;;;;;;;5118341;28;20284;-66
2023/06/01 06:14:39;;;;;;;14.27;7.43;;;;;;;;;;5120926;27;20207;-66
2023/06/01 06:17:09;;;;;;;16.03;6.90;;;;;;;;;;5115935;28;20286;-66
2023/06/01 06:19:38;;;;;;;10.20;7.03;;;;;;;;;;5118998;27;20545;-67
2023/06/01 06:22:07;;;;;;;15.10;7.57;;;;;;;;;;5116310;28;20285;-67
2023/06/01 06:24:35;;;;;;;15.63;7.63;;;;;;;;;;5109365;28;20533;-67
2023/06/01 06:27:03;;;;;;;60.60;11.03;;;;;;;;;;5118225;28;20230;-66
2023/06/01 06:29:31;;;;;;;12.30;6.60;;;;;;;;;;5118457;28;20211;-66
2023/06/01 06:32:00;;;;;;;13.33;6.90;;;;;;;;;;5118380;28;20203;-66
2023/06/01 06:34:33;;;;;;;7.70;6.40;;;;;;;;;;5118176;28;20697;-67
2023/06/01 06:37:03;;;;;;;10.30;6.67;;;;;;;;;;5118462;28;20228;-67
2023/06/01 06:39:31;;;;;;;12.43;6.50;;;;;;;;;;5118687;28;20218;-67
2023/06/01 06:42:01;;;;;;;10.47;6.63;;;;;;;;;;5118588;28;20289;-67
2023/06/01 06:44:29;;;;;;;10.87;6.77;;;;;;;;;;5118124;28;20328;-68
2023/06/01 06:46:59;;;;;;;11.27;6.57;;;;;;;;;;5118187;28;20228;-69
2023/06/01 06:49:29;;;;;;;7.93;5.53;;;;;;;;;;5117777;28;20653;-69
2023/06/01 06:51:58;;;;;;;13.63;6.77;;;;;;;;;;5118491;28;20208;-69
2023/06/01 06:54:27;;;;;;;7.97;6.53;;;;;;;;;;5118233;28;20233;-69
2023/06/01 06:56:55;;;;;;;10.37;6.67;;;;;;;;;;5127549;28;20223;-69
2023/06/01 06:59:23;;;;;;;8.77;5.93;;;;;;;;;;5138396;27;20211;-68
2023/06/01 07:01:52;;;;;;;9.67;6.33;;;;;;;;;;5127401;27;20252;-67
2023/06/01 07:04:20;;;;;;;9.63;6.07;;;;;;;;;;5117658;28;20222;-68
2023/06/01 07:06:48;;;;;;;9.13;6.30;;;;;;;;;;5118001;28;20239;-69
2023/06/01 07:09:16;;;;;;;7.57;5.43;;;;;;;;;;5118652;28;20208;-67
2023/06/01 07:11:47;;;;;;;7.50;5.17;;;;;;;;;;5122444;28;20210;-69
2023/06/01 07:14:15;;;;;;;6.07;5.00;;;;;;;;;;5122451;28;20260;-69
2023/06/01 07:16:43;;;;;;;8.73;5.10;;;;;;;;;;5122064;28;20224;-68
2023/06/01 07:19:12;;;;;;;8.80;5.07;;;;;;;;;;5122382;27;20204;-68
2023/06/01 07:21:40;;;;;;;8.80;5.20;;;;;;;;;;5121747;28;20203;-68
2023/06/01 07:24:09;;;;;;;8.03;5.57;;;;;;;;;;5122051;28;20221;-65
2023/06/01 07:26:37;;;;;;;11.97;7.07;;;;;;;;;;5122117;28;20227;-65
2023/06/01 07:29:06;;;;;;;14.80;6.90;;;;;;;;;;5122137;28;20291;-64
2023/06/01 07:31:35;;;;;;;10.00;6.60;;;;;;;;;;5121858;28;20202;-65
2023/06/01 07:34:03;;;;;;;8.23;5.97;;;;;;;;;;5122050;27;20550;-64
2023/06/01 07:36:36;;;;;;;10.90;5.53;;;;;;;;;;5122692;28;20252;-64
2023/06/01 07:39:08;;;;;;;9.87;6.33;;;;;;;;;;5121845;28;20263;-65
2023/06/01 07:41:37;;;;;;;9.03;5.43;;;;;;;;;;5122010;28;20314;-64
2023/06/01 07:44:20;;;;;;;8.10;5.23;;;;;;;;;;5121614;28;20315;-64
2023/06/01 07:46:51;;;;;;;8.00;5.23;;;;;;;;;;5131792;27;20709;-65
2023/06/01 07:49:20;;;;;;;8.93;5.40;;;;;;;;;;5121561;28;20202;-64
2023/06/01 07:51:51;;;;;;;6.93;5.30;;;;;;;;;;5121463;28;20207;-64
2023/06/01 07:54:19;;;;;;;9.47;5.57;;;;;;;;;;5121244;28;20287;-64
2023/06/01 07:56:48;;;;;;;7.87;4.67;;;;;;;;;;5138625;27;20224;-65
2023/06/01 07:59:17;;;;;;;8.73;5.60;;;;;;;;;;5142244;27;20279;-65
2023/06/01 08:01:45;;;;;;;7.70;5.20;;;;;;;;;;5123110;27;20205;-65
2023/06/01 08:04:14;;;;;;;7.30;5.23;;;;;;;;;;5122712;27;20229;-65
2023/06/01 08:06:43;;;;;;;10.03;5.10;;;;;;;;;;5119905;27;20226;-65
2023/06/01 08:09:11;;;;;;;6.43;5.37;;;;;;;;;;5121351;28;20209;-65
2023/06/01 08:11:39;;;;;;;6.43;4.60;;;;;;;;;;5121218;27;20280;-65
2023/06/01 08:14:08;;;;;;;8.93;4.57;;;;;;;;;;5121000;28;20279;-65
2023/06/01 08:16:38;;;;;;;5.33;4.43;;;;;;;;;;5120813;28;20267;-66
2023/06/01 08:19:06;;;;;;;10.83;4.50;;;;;;;;;;5113867;28;20279;-65
2023/06/01 08:21:35;;;;;;;8.53;4.90;;;;;;;;;;5135819;27;20231;-66
2023/06/01 08:24:08;;;;;;;9.90;5.23;;;;;;;;;;5141442;27;20280;-65
2023/06/01 08:26:40;;;;;;;12.60;5.20;;;;;;;;;;5134032;27;20228;-65
2023/06/01 08:29:10;;;;;;;9.93;4.93;;;;;;;;;;5141643;27;20211;-66
2023/06/01 08:31:40;;;;;;;7.33;4.90;;;;;;;;;;5141222;27;20240;-66
2023/06/01 08:34:08;;;;;;;9.13;5.43;;;;;;;;;;5141099;27;20217;-66
2023/06/01 08:36:36;;;;;;;6.40;5.00;;;;;;;;;;5141022;27;20222;-66
2023/06/01 08:39:19;;;;;;;11.00;5.40;;;;;;;;;;5120482;28;20565;-66
2023/06/01 08:41:51;;;;;;;10.67;5.70;;;;;;;;;;5120637;28;20216;-66
2023/06/01 08:44:23;;;;;;;8.23;6.13;;;;;;;;;;5120321;28;20225;-66
2023/06/01 08:46:54;;;;;;;9.03;6.47;;;;;;;;;;5120355;28;20268;-66
2023/06/01 08:49:22;;;;;;;9.40;6.27;;;;;;;;;;5120339;28;20205;-66
2023/06/01 08:51:52;;;;;;;11.33;5.50;;;;;;;;;;5120492;28;20201;-64
2023/06/01 08:54:21;;;;;;;7.67;4.83;;;;;;;;;;5120413;28;20287;-66
2023/06/01 08:56:49;;;;;;;9.93;5.50;;;;;;;;;;5132581;27;20223;-66
2023/06/01 08:59:17;;;;;;;10.63;5.30;;;;;;;;;;5140895;27;20294;-66
2023/06/01 09:01:47;;;;;;;7.37;5.70;;;;;;;;;;5119042;27;20280;-65
2023/06/01 09:04:17;;;;;;;11.97;5.33;;;;;;;;;;5118923;28;20694;-66
2023/06/01 09:06:45;;;;;;;6.63;5.03;;;;;;;;;;5120022;28;20227;-66
2023/06/01 09:09:14;;;;;;;8.57;5.43;;;;;;;;;;5119870;27;20581;-66
2023/06/01 09:11:42;;;;;;;10.23;5.00;;;;;;;;;;5107966;28;20636;-65
2023/06/01 09:14:23;;;;;;;9.13;4.90;;;;;;;;;;5105104;28;20608;-65
2023/06/01 09:16:52;;;;;;;7.63;4.87;;;;;;;;;;5117052;28;20218;-66
2023/06/01 09:19:22;;;;;;;4.80;4.30;;;;;;;;;;5117344;27;20227;-66
2023/06/01 09:21:59;;;;;;;8.17;5.07;;;;;;;;;;5140414;27;20295;-65
2023/06/01 09:24:28;;;;;;;5.80;4.30;;;;;;;;;;5140000;27;20239;-64
2023/06/01 09:26:59;;;;;;;6.63;4.73;;;;;;;;;;5127477;27;20259;-64
2023/06/01 09:29:30;;;;;;;8.67;5.20;;;;;;;;;;5119522;28;20661;-64
2023/06/01 09:31:58;;;;;;;7.60;5.10;;;;;;;;;;5104421;27;20205;-71
2023/06/01 09:34:28;;;;;;;10.60;5.20;;;;;;;;;;5137058;27;20200;-69
2023/06/01 09:36:56;;;;;;;9.50;5.07;;;;;;;;;;5139995;27;20322;-68
2023/06/01 09:39:25;;;;;;;11.07;5.37;;;;;;;;;;5140074;27;20213;-69
2023/06/01 09:41:53;;;;;;;6.00;4.73;;;;;;;;;;5139907;27;20286;-70
2023/06/01 09:44:25;;;;;;;6.97;5.40;;;;;;;;;;5125170;27;20218;-64
2023/06/01 09:46:54;;;;;;;7.63;4.93;;;;;;;;;;5108801;28;20237;-64
2023/06/01 09:49:24;;;;;;;10.73;5.10;;;;;;;;;;5119160;28;20656;-63
2023/06/01 09:51:55;;;;;;;5.27;4.13;;;;;;;;;;5107792;28;20229;-65
2023/06/01 09:54:23;;;;;;;6.73;3.90;;;;;;;;;;5101985;28;20204;-65
2023/06/01 09:56:52;;;;;;;4.47;3.73;;;;;;;;;;5112705;28;20219;-64
2023/06/01 09:59:40;;;;;;;6.67;3.60;;;;;;;;;;5119315;28;20239;-64
2023/06/01 10:02:08;;;;;;;6.70;4.00;;;;;;;;;;5119122;28;20205;-64
2023/06/01 10:04:38;;;;;;;5.67;3.63;;;;;;;;;;5118860;28;20242;-64
2023/06/01 10:07:10;;;;;;;6.27;3.33;;;;;;;;;;5118976;28;20252;-64
2023/06/01 10:09:40;;;;;;;4.07;3.43;;;;;;;;;;5111249;27;20206;-64
2023/06/01 10:12:08;;;;;;;5.47;4.13;;;;;;;;;;5113720;27;20205;-65
2023/06/01 10:14:37;;;;;;;6.57;3.50;;;;;;;;;;5120680;27;20199;-64
2023/06/01 10:17:06;;;;;;;5.80;4.40;;;;;;;;;;5116697;27;20252;-64
2023/06/01 10:19:34;;;;;;;3.60;3.20;;;;;;;;;;5114317;27;20239;-64
2023/06/01 10:22:03;;;;;;;5.90;4.50;;;;;;;;;;5112138;28;20317;-64
2023/06/01 10:24:33;;;;;;;7.90;4.87;;;;;;;;;;5105223;27;20671;-65
2023/06/01 10:27:06;;;;;;;6.43;4.33;;;;;;;;;;5123904;27;20252;-65
2023/06/01 10:29:34;;;;;;;7.00;4.27;;;;;;;;;;5106289;27;20238;-64
2023/06/01 10:32:03;;;;;;;5.73;4.17;;;;;;;;;;5118690;28;20222;-64
2023/06/01 10:34:40;;;;;;;4.70;3.57;;;;;;;;;;5109902;27;20263;-64
2023/06/01 10:37:12;;;;;;;4.37;2.90;;;;;;;;;;5107003;28;20245;-64
2023/06/01 10:39:43;;;;;;;4.87;3.10;;;;;;;;;;5114745;28;20198;-64
2023/06/01 10:42:29;;;;;;;4.70;3.10;;;;;;;;;;5125697;27;20574;-65
2023/06/01 10:44:57;;;;;;;5.33;3.20;;;;;;;;;;5128368;27;20204;-65
2023/06/01 10:47:43;;;;;;;4.20;3.00;;;;;;;;;;5133666;27;20208;-65
2023/06/01 10:50:15;;;;;;;3.47;3.17;;;;;;;;;;5118228;28;20242;-64
2023/06/01 10:52:43;;;;;;;3.70;3.27;;;;;;;;;;5118122;28;20322;-65
2023/06/01 10:55:24;;;;;;;5.63;3.33;;;;;;;;;;5117931;28;20295;-65
2023/06/01 10:58:20;;;;;;;5.30;3.70;;;;;;;;;;5118219;28;20210;-64
2023/06/01 11:00:49;;;;;;;3.07;2.80;;;;;;;;;;5118401;28;20196;-65
2023/06/01 11:03:37;;;;;;;4.37;3.37;;;;;;;;;;5110200;28;20745;-70
2023/06/01 11:06:23;;;;;;;2.87;2.57;;;;;;;;;;5117870;28;20232;-69
2023/06/01 11:08:52;;;;;;;4.30;3.00;;;;;;;;;;5117919;28;20612;-72
2023/06/01 11:11:24;;;;;;;5.13;3.10;;;;;;;;;;5118356;28;20208;-72
2023/06/01 11:14:11;;;;;;;5.93;3.43;;;;;;;;;;5106852;28;20197;-70
2023/06/01 11:16:39;;;;;;;4.63;3.30;;;;;;;;;;5116692;28;20722;-71
2023/06/01 11:19:08;;;;;;;4.03;3.40;;;;;;;;;;5117117;28;20215;-72
2023/06/01 11:21:39;;;;;;;4.50;3.67;;;;;;;;;;5117880;28;20209;-72
2023/06/01 11:24:08;;;;;;;4.77;3.83;;;;;;;;;;5117942;28;20206;-74
2023/06/01 11:26:40;;;;;;;8.37;3.57;;;;;;;;;;5117550;28;20256;-66
2023/06/01 11:29:09;;;;;;;14.43;6.77;;;;;;;;;;5118076;28;20209;-66
2023/06/01 11:31:42;;;;;;;5.33;3.20;;;;;;;;;;5108690;28;20203;-65
2023/06/01 11:34:11;;;;;;;4.77;3.80;;;;;;;;;;5104225;28;20209;-67
2023/06/01 11:36:40;;;;;;;3.63;3.20;;;;;;;;;;5111276;28;20242;-64
2023/06/01 11:39:17;;;;;;;6.40;3.40;;;;;;;;;;5105323;28;20215;-65
2023/06/01 11:41:50;;;;;;;9.20;3.60;;;;;;;;;;5115011;27;20719;-70
2023/06/01 11:44:18;;;;;;;4.17;3.20;;;;;;;;;;5115582;28;20580;-70
2023/06/01 11:46:56;;;;;;;4.07;2.60;;;;;;;;;;5117474;28;20238;-70
2023/06/01 11:49:24;;;;;;;3.93;2.83;;;;;;;;;;5117313;28;20211;-69
2023/06/01 11:51:53;;;;;;;5.40;2.23;;;;;;;;;;5117801;28;20208;-69
2023/06/01 11:54:28;;;;;;;4.30;3.23;;;;;;;;;;5113650;28;20205;-69
2023/06/01 11:56:58;;;;;;;3.40;2.50;;;;;;;;;;5129696;27;20220;-69
2023/06/01 11:59:28;;;;;;;3.40;2.93;;;;;;;;;;5116519;27;20206;-69
2023/06/01 12:01:56;;;;;;;4.13;3.10;;;;;;;;;;5121110;27;20288;-70
2023/06/01 12:04:25;;;;;;;4.23;2.63;;;;;;;;;;5121243;28;20206;-73
2023/06/01 12:07:05;;;;;;;6.37;3.33;;;;;;;;;;5120862;28;20234;-72
2023/06/01 12:09:34;;;;;;;3.00;2.60;;;;;;;;;;5120984;28;20602;-71
2023/06/01 12:12:05;;;;;;;3.00;2.33;;;;;;;;;;5116134;28;20210;-71
2023/06/01 12:14:33;;;;;;;3.33;3.03;;;;;;;;;;5126329;27;20211;-66
2023/06/01 12:17:04;;;;;;;3.90;3.07;;;;;;;;;;5123373;27;20218;-67
2023/06/01 12:19:33;;;;;;;4.07;2.53;;;;;;;;;;5118781;28;20666;-67
2023/06/01 12:22:01;;;;;;;3.27;2.90;;;;;;;;;;5121219;28;20291;-67
2023/06/01 12:24:30;;;;;;;5.53;3.07;;;;;;;;;;5120867;28;20253;-68
2023/06/01 12:26:59;;;;;;;4.47;2.83;;;;;;;;;;5121129;28;20616;-69
2023/06/01 12:29:38;;;;;;;4.47;2.77;;;;;;;;;;5121005;27;20203;-69
2023/06/01 12:32:08;;;;;;;3.80;3.20;;;;;;;;;;5121063;28;20227;-67
2023/06/01 12:34:36;;;;;;;4.40;3.20;;;;;;;;;;5120365;28;20287;-69
2023/06/01 12:37:14;;;;;;;5.20;3.23;;;;;;;;;;5120808;28;20224;-68
2023/06/01 12:39:42;;;;;;;4.60;2.93;;;;;;;;;;5120632;28;20214;-68
2023/06/01 12:42:11;;;;;;;3.63;3.10;;;;;;;;;;5120566;27;20234;-68
2023/06/01 12:44:41;;;;;;;4.00;3.23;;;;;;;;;;5120799;28;20235;-68
2023/06/01 12:47:10;;;;;;;5.17;3.30;;;;;;;;;;5120597;28;20232;-68
2023/06/01 12:49:39;;;;;;;3.97;3.43;;;;;;;;;;5120232;28;20216;-68
2023/06/01 12:52:08;;;;;;;4.43;3.30;;;;;;;;;;5112311;27;20204;-68
2023/06/01 12:54:37;;;;;;;5.37;3.23;;;;;;;;;;5117829;28;20266;-69
2023/06/01 12:57:13;;;;;;;4.83;3.17;;;;;;;;;;5112151;28;20310;-68
2023/06/01 12:59:43;;;;;;;3.80;2.97;;;;;;;;;;5116000;28;20210;-69
2023/06/01 13:02:11;;;;;;;6.17;3.80;;;;;;;;;;5119881;28;20242;-69
2023/06/01 13:04:44;;;;;;;3.93;3.20;;;;;;;;;;5119738;28;20569;-67
2023/06/01 13:07:12;;;;;;;3.50;3.20;;;;;;;;;;5119569;28;20234;-67
2023/06/01 13:09:41;;;;;;;3.90;3.10;;;;;;;;;;5119872;28;20208;-68
2023/06/01 13:12:10;;;;;;;3.33;3.03;;;;;;;;;;5120292;28;20210;-67
2023/06/01 13:14:38;;;;;;;3.60;3.17;;;;;;;;;;5120054;28;20207;-67
2023/06/01 13:17:07;;;;;;;5.20;3.07;;;;;;;;;;5120103;28;20229;-69
2023/06/01 13:19:36;;;;;;;3.47;2.80;;;;;;;;;;5119998;28;20218;-68
2023/06/01 13:22:04;;;;;;;4.97;3.30;;;;;;;;;;5119827;28;20310;-68
2023/06/01 13:24:33;;;;;;;4.37;3.20;;;;;;;;;;5119487;28;20209;-68
2023/06/01 13:27:20;;;;;;;3.90;3.30;;;;;;;;;;5119368;28;20239;-68
2023/06/01 13:29:51;;;;;;;3.87;3.10;;;;;;;;;;5119873;27;20577;-67
2023/06/01 13:32:21;;;;;;;3.50;3.20;;;;;;;;;;5119571;28;20244;-67
2023/06/01 13:34:50;;;;;;;3.57;3.27;;;;;;;;;;5119124;28;20206;-67
2023/06/01 13:37:18;;;;;;;4.37;3.03;;;;;;;;;;5119726;28;20237;-68
2023/06/01 13:39:48;;;;;;;4.60;3.00;;;;;;;;;;5119628;28;20207;-67
2023/06/01 13:42:17;;;;;;;4.20;3.10;;;;;;;;;;5111039;28;20202;-69
2023/06/01 13:44:47;;;;;;;3.43;3.03;;;;;;;;;;5105948;27;20263;-70
2023/06/01 13:47:16;;;;;;;4.83;3.53;;;;;;;;;;5139757;27;20582;-69
2023/06/01 13:49:46;;;;;;;6.17;3.53;;;;;;;;;;5119290;27;20551;-69
2023/06/01 13:52:14;;;;;;;3.60;3.30;;;;;;;;;;5121394;27;20668;-70
2023/06/01 13:54:42;;;;;;;4.00;3.60;;;;;;;;;;5136079;27;20572;-69
2023/06/01 13:57:11;;;;;;;6.73;2.93;;;;;;;;;;5139497;27;20227;-69
2023/06/01 13:59:39;;;;;;;4.80;3.27;;;;;;;;;;5124052;27;20667;-72
2023/06/01 14:02:08;;;;;;;4.27;3.77;;;;;;;;;;5104399;28;20202;-72
2023/06/01 14:04:36;;;;;;;3.63;2.97;;;;;;;;;;5107848;27;20217;-72
2023/06/01 14:07:06;;;;;;;3.57;2.80;;;;;;;;;;5136339;27;20232;-72
2023/06/01 14:09:34;;;;;;;3.97;3.00;;;;;;;;;;5119036;28;20206;-72
2023/06/01 14:12:03;;;;;;;4.47;3.30;;;;;;;;;;5119101;28;20213;-72
2023/06/01 14:14:31;;;;;;;4.20;2.73;;;;;;;;;;5119151;28;20576;-72
2023/06/01 14:16:59;;;;;;;4.60;3.30;;;;;;;;;;5118990;28;20228;-72
2023/06/01 14:19:27;;;;;;;3.93;3.40;;;;;;;;;;5118223;28;20209;-72
2023/06/01 14:21:56;;;;;;;4.20;3.33;;;;;;;;;;5118660;28;20644;-72
2023/06/01 14:24:25;;;;;;;4.10;2.73;;;;;;;;;;5118833;28;20213;-72
2023/06/01 14:26:53;;;;;;;3.13;2.83;;;;;;;;;;5118290;28;20222;-73
2023/06/01 14:29:21;;;;;;;4.70;2.63;;;;;;;;;;5118604;27;20221;-72
2023/06/01 14:31:50;;;;;;;3.80;2.70;;;;;;;;;;5118630;28;20205;-72
2023/06/01 14:34:18;;;;;;;4.72;2.97;;;;;;;;;;5118072;28;20267;-71
2023/06/01 14:36:46;;;;;;;4.80;3.07;;;;;;;;;;5118552;28;20268;-72
2023/06/01 14:39:15;;;;;;;4.10;2.83;;;;;;;;;;5118569;28;20204;-71
2023/06/01 14:41:44;;;;;;;3.42;2.60;;;;;;;;;;5118279;28;20208;-72
2023/06/01 14:44:13;;;;;;;3.50;3.03;;;;;;;;;;5107851;28;20198;-70
2023/06/01 14:46:42;;;;;;;7.90;3.15;;;;;;;;;;5118332;28;20222;-66
2023/06/01 14:49:10;;;;;;;5.27;2.97;;;;;;;;;;5116433;28;20225;-66
2023/06/01 14:51:38;;;;;;;4.73;3.33;;;;;;;;;;5118291;28;20213;-66
2023/06/01 14:54:06;;;;;;;7.60;2.80;;;;;;;;;;5117798;28;20786;-66
2023/06/01 14:56:35;;;;;;;9.90;3.40;;;;;;;;;;5118425;28;20316;-66